SANT/TUC METAR and TAF weather

Enter ICAO airport designator
Station Type Date Time Source
SANT METAR 2022/08/12 15:00 UTC NOAA

SANT 121500Z 21005KT 7000 NSC 17/06 Q1011 RMK PP000


Station Type Date Time Source
SANT Decoded METAR 2022/08/12 15:00 UTC NOAA

Tucuman Aerodrome, Argentina (SANT) 26-51S 065-06W 450M
Aug 12, 2022 - 11:00 AM EDT / 2022.08.12 1500 UTC
Wind: from the SSW (210 degrees) at 6 MPH (5 KT):0
Visibility: 4 mile(s):0
Temperature: 62 F (17 C)
Dew Point: 42 F (6 C)
Relative Humidity: 48%
Pressure (altimeter): 29.85 in. Hg (1011 hPa)
ob: SANT 121500Z 21005KT 7000 NSC 17/06 Q1011 RMK PP000
cycle: 15

Station Type Date Time Source
SANT TAF 2022/08/12 12:09 UTC NOAA

TAF TAF SANT 121100Z 1212/1312 VRB04KT 7000 NSC TX24/1218Z TN10/1311Z
BECMG 1213/1215 23005KT
BECMG 1218/1221 VRB04KT 5000 FU NSC
BECMG 1310/1312 36010KT

Example: see airport list